Date,TemperatureHighF,TemperatureAvgF,TemperatureLowF,DewpointHighF,DewpointAvgF,DewpointLowF,HumidityHigh,HumidityAvg,HumidityLow,PressureMaxIn,PressureMinIn,WindSpeedMaxMPH,WindSpeedAvgMPH,GustSpeedMaxMPH,PrecipitationSumIn
2013-2-1,26.4,20.2,10.6,18.9,15.4,7.5,92,82,59,30.64,30.43,18,2,22,0.00
2013-2-2,36.9,18.0,3.4,19.6,9.3,0.3,91,72,38,30.84,30.64,7,2,8,0.01
2013-2-3,40.6,19.9,8.2,10.0,5.4,-8.9,87,59,13,30.73,30.35,11,2,13,0.01
2013-2-4,34.5,18.3,3.9,13.6,5.9,-0.4,84,62,31,30.48,30.36,12,2,14,0.00
2013-2-5,45.3,24.4,8.1,20.8,13.8,4.3,88,67,32,30.51,30.22,8,2,9,0.00
2013-2-6,37.6,23.6,12.7,23.9,17.0,9.5,90,77,47,30.31,30.08,10,2,13,0.00
2013-2-7,39.0,17.5,0.1,15.6,4.7,-3.5,89,62,20,30.52,30.31,8,2,9,0.01
2013-2-8,43.2,24.0,8.1,20.7,8.6,-0.8,79,55,23,30.45,29.92,15,2,17,0.00
2013-2-9,28.6,18.4,10.6,22.3,13.1,5.7,93,80,53,29.93,29.65,12,2,15,0.01
2013-2-10,23.2,11.2,2.3,11.8,5.2,-1.7,89,77,53,30.32,29.88,11,2,13,0.00
2013-2-11,23.2,9.4,-1.5,9.5,3.0,-6.0,88,76,43,30.51,30.30,10,2,13,0.00
2013-2-12,18.9,1.9,-12.8,2.1,-6.0,-17.1,89,71,44,30.84,30.51,14,2,15,0.00
2013-2-13,29.7,16.0,4.1,14.9,9.1,-0.9,88,75,51,30.85,30.49,16,2,20,0.00
2013-2-14,28.8,17.8,12.6,15.3,9.9,5.0,90,73,47,30.51,30.38,16,3,19,0.00
2013-2-15,22.6,16.8,10.2,11.3,7.2,2.8,86,66,47,30.74,30.50,19,5,23,0.00
2013-2-16,37.9,17.9,1.9,13.8,6.6,-1.7,88,65,34,30.82,30.48,18,3,22,0.00
2013-2-17,42.8,22.5,5.4,14.9,3.9,-6.3,85,52,15,30.49,29.94,26,4,29,0.00
2013-2-18,24.3,13.0,1.8,10.8,3.3,-5.6,86,66,38,30.53,30.00,16,3,16,0.00
2013-2-19,41.4,15.7,-5.1,7.2,-2.1,-11.2,81,51,12,30.54,30.11,10,2,10,0.00
2013-2-20,35.4,21.8,11.8,16.7,9.3,3.0,87,60,29,30.11,29.70,9,2,10,0.00
2013-2-21,26.1,17.0,7.2,15.4,11.8,3.4,91,80,54,30.16,29.74,16,2,18,0.03
2013-2-22,21.2,9.0,-2.7,9.1,2.7,-7.1,87,76,53,30.45,30.16,16,2,16,0.01
2013-2-23,32.7,16.1,-0.8,21.2,9.2,-5.3,91,76,45,30.46,29.98,12,2,13,0.00
2013-2-24,20.8,13.5,3.6,14.4,8.0,-0.4,90,80,52,30.41,29.91,11,2,14,0.00
2013-2-25,25.9,9.7,-3.8,9.1,1.3,-7.6,88,71,42,30.62,30.35,13,2,15,0.12
2013-2-26,19.8,11.1,3.0,10.6,6.1,-0.8,89,80,61,30.54,30.21,15,3,17,0.00
2013-2-27,23.9,9.4,-0.2,7.7,1.7,-5.4,88,72,43,30.77,30.54,13,2,14,0.02
2013-2-28,26.1,11.0,-5.3,13.8,3.5,-9.2,88,74,41,30.89,30.77,16,3,19,0.00